createdAt,value
2019-05-18T00:03:32.512Z,79.02
2019-05-18T00:08:35.232Z,78.78
2019-05-18T00:13:37.926Z,79.20
2019-05-18T00:18:40.642Z,79.31
2019-05-18T00:23:43.362Z,79.61
2019-05-18T00:28:46.477Z,79.31
2019-05-18T00:33:49.183Z,79.69
2019-05-18T00:38:51.895Z,79.65
2019-05-18T00:43:54.606Z,79.39
2019-05-18T00:48:57.315Z,79.29
2019-05-18T00:54:01.479Z,79.01
2019-05-18T00:59:04.242Z,78.90
2019-05-18T01:04:06.939Z,78.78
2019-05-18T01:09:16.618Z,78.64
2019-05-18T01:14:19.317Z,78.20
2019-05-18T01:19:22.125Z,77.92
2019-05-18T01:24:24.849Z,78.05
2019-05-18T01:29:27.562Z,79.34
2019-05-18T01:34:30.281Z,80.66
2019-05-18T01:39:33.001Z,80.74
2019-05-18T01:44:36.029Z,80.92
2019-05-18T01:49:38.795Z,80.84
2019-05-18T01:54:41.746Z,81.32
2019-05-18T01:59:44.464Z,81.66
2019-05-18T02:04:47.183Z,82.05
2019-05-18T02:09:49.895Z,82.06
2019-05-18T02:14:52.605Z,82.21
2019-05-18T02:19:55.343Z,82.30
2019-05-18T02:24:58.070Z,81.98
2019-05-18T02:30:00.783Z,81.84
2019-05-18T02:35:03.955Z,82.32
2019-05-18T02:40:07.857Z,82.21
2019-05-18T02:45:12.068Z,80.98
2019-05-18T02:50:14.976Z,80.38
2019-05-18T02:55:17.663Z,80.44
2019-05-18T03:00:20.384Z,80.79
2019-05-18T03:05:23.164Z,80.73
2019-05-18T03:10:25.876Z,80.69
2019-05-18T03:15:28.580Z,81.04
2019-05-18T03:20:31.295Z,80.74
2019-05-18T03:25:34.103Z,81.53
2019-05-18T03:30:36.880Z,81.67
2019-05-18T03:41:23.197Z,83.04
2019-05-18T03:46:25.925Z,84.19
2019-05-18T03:51:28.615Z,83.64
2019-05-18T03:56:31.316Z,83.15
2019-05-18T04:01:34.130Z,83.34
2019-05-18T04:06:36.829Z,83.09
2019-05-18T04:11:39.516Z,83.26
2019-05-18T04:16:42.228Z,82.75
2019-05-18T04:21:44.990Z,82.07
2019-05-18T04:26:47.739Z,81.22
2019-05-18T04:31:50.436Z,81.73
2019-05-18T04:36:53.189Z,81.71
2019-05-18T04:41:55.881Z,81.77
2019-05-18T04:46:58.613Z,81.37
2019-05-18T04:52:01.369Z,81.35
2019-05-18T04:57:04.595Z,81.24
2019-05-18T05:02:07.312Z,81.24
2019-05-18T05:07:10.013Z,81.04
2019-05-18T05:12:12.845Z,80.33
2019-05-18T05:17:15.586Z,79.64
2019-05-18T05:22:18.296Z,79.27
2019-05-18T05:27:21.010Z,79.12
2019-05-18T05:32:24.872Z,78.86
2019-05-18T05:37:28.078Z,78.61
2019-05-18T05:42:32.490Z,78.02
2019-05-18T05:47:35.340Z,78.01
2019-05-18T05:52:38.064Z,77.55
2019-05-18T05:57:40.772Z,77.69
2019-05-18T06:02:43.491Z,77.48
2019-05-18T06:07:46.267Z,76.76
2019-05-18T06:12:49.753Z,76.04
2019-05-18T06:17:52.464Z,75.68
2019-05-18T06:22:55.157Z,75.45
2019-05-18T06:27:57.860Z,75.02
2019-05-18T06:33:00.609Z,74.23
2019-05-18T06:38:03.549Z,73.51
2019-05-18T06:43:06.246Z,73.19
2019-05-18T06:48:08.956Z,72.07
2019-05-18T06:53:11.730Z,71.77
2019-05-18T06:58:15.035Z,70.89
2019-05-18T07:03:17.767Z,69.24
2019-05-18T07:08:20.485Z,68.91
2019-05-18T07:13:23.247Z,67.24
2019-05-18T07:18:26.163Z,65.99
2019-05-18T07:23:28.890Z,64.94
2019-05-18T07:28:34.834Z,63.56
2019-05-18T07:33:37.966Z,62.30
2019-05-18T07:38:47.733Z,62.30
2019-05-18T07:43:56.642Z,61.48
2019-05-18T07:49:11.820Z,61.41
2019-05-18T07:54:23.009Z,60.27
2019-05-18T07:59:32.144Z,59.62
2019-05-18T08:04:41.247Z,58.83
2019-05-18T08:09:47.175Z,58.57
2019-05-18T08:14:50.167Z,57.75
2019-05-18T08:19:52.868Z,57.62
2019-05-18T08:24:55.600Z,59.23
2019-05-18T08:30:00.869Z,55.77
2019-05-18T08:35:03.964Z,58.27
2019-05-18T08:40:07.225Z,58.81
2019-05-18T08:45:10.608Z,55.26
2019-05-18T08:50:13.350Z,54.29
2019-05-18T08:55:16.144Z,54.44
2019-05-18T09:00:19.176Z,54.00
2019-05-18T09:05:21.889Z,52.84
2019-05-18T09:10:24.627Z,51.72
2019-05-18T09:15:27.329Z,51.53
2019-05-18T09:20:30.041Z,51.66
2019-05-18T09:25:32.860Z,50.98
2019-05-18T09:30:35.570Z,49.69
2019-05-18T09:35:38.280Z,48.99
2019-05-18T09:40:40.974Z,47.76
2019-05-18T09:45:43.721Z,48.58
2019-05-18T09:50:46.470Z,46.35
2019-05-18T09:55:49.168Z,46.31
2019-05-18T10:00:51.877Z,46.90
2019-05-18T10:05:54.574Z,45.57
2019-05-18T10:10:57.305Z,45.29
2019-05-18T10:16:00.114Z,46.25
2019-05-18T10:21:02.833Z,46.43
2019-05-18T10:26:05.585Z,45.00
2019-05-18T10:31:08.641Z,44.70
2019-05-18T10:36:11.877Z,45.54
2019-05-18T10:41:14.762Z,44.76
2019-05-18T10:46:17.584Z,45.14
2019-05-18T10:51:20.320Z,45.28
2019-05-18T10:56:23.037Z,46.34
2019-05-18T11:01:25.742Z,45.56
2019-05-18T11:06:28.545Z,45.64
2019-05-18T11:11:31.283Z,45.32
2019-05-18T11:16:34.283Z,45.44
2019-05-18T11:21:37.122Z,45.92
2019-05-18T11:26:40.467Z,45.33
2019-05-18T11:31:44.170Z,44.46
2019-05-18T11:36:47.791Z,44.12
2019-05-18T11:41:50.746Z,44.90
2019-05-18T11:46:54.144Z,44.20
2019-05-18T11:51:57.463Z,43.63
2019-05-18T11:57:00.854Z,43.36
2019-05-18T12:02:03.686Z,42.77
2019-05-18T12:07:06.513Z,43.45
2019-05-18T12:12:09.301Z,43.26
2019-05-18T12:17:12.035Z,43.55
2019-05-18T12:22:14.757Z,43.91
2019-05-18T12:27:17.456Z,42.43
2019-05-18T12:32:20.179Z,44.18
2019-05-18T12:37:22.876Z,44.59
2019-05-18T12:42:25.643Z,44.37
2019-05-18T12:47:30.462Z,42.13
2019-05-18T12:52:35.870Z,42.26
2019-05-18T12:57:38.816Z,42.58
2019-05-18T13:02:41.597Z,42.19
2019-05-18T13:07:44.312Z,42.45
2019-05-18T13:12:47.008Z,41.83
2019-05-18T13:17:49.779Z,42.61
2019-05-18T13:22:54.042Z,41.77
2019-05-18T13:27:56.742Z,41.34
2019-05-18T13:32:59.445Z,41.24
2019-05-18T13:38:02.203Z,40.37
2019-05-18T13:43:05.135Z,42.27
2019-05-18T13:48:07.885Z,42.38
2019-05-18T13:53:10.612Z,42.09
2019-05-18T13:58:13.298Z,41.53
2019-05-18T14:03:16.010Z,41.41
2019-05-18T14:08:18.724Z,41.51
2019-05-18T14:13:21.495Z,41.92
2019-05-18T14:18:24.301Z,41.31
2019-05-18T14:23:27.056Z,41.02
2019-05-18T14:28:29.757Z,41.12
2019-05-18T14:33:32.534Z,41.11
2019-05-18T14:38:35.236Z,39.96
2019-05-18T14:43:37.967Z,39.45
2019-05-18T14:48:40.749Z,39.62
2019-05-18T14:53:43.512Z,39.55
2019-05-18T14:58:46.203Z,38.31
2019-05-18T15:03:48.904Z,38.83
2019-05-18T15:08:51.624Z,38.20
2019-05-18T15:13:54.334Z,38.63
2019-05-18T15:18:57.056Z,38.03
2019-05-18T15:23:59.761Z,37.18
2019-05-18T15:29:02.473Z,37.89
2019-05-18T15:34:05.200Z,37.51
2019-05-18T15:39:07.942Z,37.96
2019-05-18T15:44:10.660Z,37.73
2019-05-18T15:49:13.442Z,36.70
2019-05-18T15:54:16.222Z,36.49
2019-05-18T15:59:18.939Z,36.47
2019-05-18T16:04:21.664Z,36.89
2019-05-18T16:09:24.363Z,36.95
2019-05-18T16:14:27.090Z,36.98
2019-05-18T16:19:29.908Z,37.42
2019-05-18T16:24:32.781Z,37.86
2019-05-18T16:29:35.511Z,38.04
2019-05-18T16:34:38.245Z,38.37
2019-05-18T16:39:41.128Z,39.59
2019-05-18T16:44:43.871Z,38.61
2019-05-18T16:49:46.619Z,38.72
2019-05-18T16:54:49.357Z,39.87
2019-05-18T16:59:52.095Z,40.98
2019-05-18T17:04:56.054Z,42.36
2019-05-18T17:09:58.780Z,42.84
2019-05-18T17:15:01.505Z,43.30
2019-05-18T17:20:05.932Z,43.28
2019-05-18T17:25:08.831Z,43.56
2019-05-18T17:30:11.660Z,44.73
2019-05-18T17:35:14.484Z,45.19
2019-05-18T17:40:17.329Z,45.45
2019-05-18T17:45:20.145Z,45.54
2019-05-18T17:50:23.037Z,45.53
2019-05-18T17:55:25.773Z,45.67
2019-05-18T18:00:28.560Z,46.25
2019-05-18T18:05:31.337Z,46.60
2019-05-18T18:10:34.068Z,47.13
2019-05-18T18:15:36.763Z,47.41
2019-05-18T18:20:39.618Z,47.77
2019-05-18T18:25:42.322Z,48.09
2019-05-18T18:30:45.051Z,48.24
2019-05-18T18:35:47.933Z,48.34
2019-05-18T18:40:50.682Z,48.47
2019-05-18T18:46:04.275Z,49.16
2019-05-18T18:51:07.670Z,49.76
2019-05-18T18:56:10.419Z,50.10
2019-05-18T19:01:13.210Z,50.43
2019-05-18T19:06:16.423Z,50.85
2019-05-18T19:11:35.601Z,51.22
2019-05-18T19:16:42.331Z,51.68
2019-05-18T19:21:49.090Z,52.62
2019-05-18T19:26:52.156Z,53.62
2019-05-18T19:31:54.918Z,53.40
2019-05-18T19:36:57.663Z,53.69
2019-05-18T19:42:00.803Z,54.13
2019-05-18T19:47:03.530Z,54.93
2019-05-18T19:52:06.403Z,56.63
2019-05-18T19:57:09.141Z,56.90
2019-05-18T20:02:12.022Z,57.50
2019-05-18T20:07:14.749Z,57.65
2019-05-18T20:12:17.819Z,58.46
2019-05-18T20:17:20.509Z,59.09
2019-05-18T20:22:23.213Z,59.47
2019-05-18T20:27:25.909Z,60.57
2019-05-18T20:32:30.727Z,61.78
2019-05-18T20:37:34.175Z,62.59
2019-05-18T20:42:37.792Z,62.48
2019-05-18T20:47:40.785Z,62.62
2019-05-18T20:52:43.505Z,62.94
2019-05-18T20:57:46.210Z,63.36
2019-05-18T21:02:50.337Z,63.77
2019-05-18T21:07:53.137Z,64.24
2019-05-18T21:12:55.923Z,64.60
2019-05-18T21:17:58.650Z,65.03
2019-05-18T21:23:01.350Z,65.63
2019-05-18T21:28:04.053Z,66.03
2019-05-18T21:33:06.767Z,66.32
2019-05-18T21:38:09.478Z,66.70
2019-05-18T21:43:12.196Z,66.77
2019-05-18T21:48:14.933Z,66.93
2019-05-18T21:53:17.631Z,67.40
2019-05-18T21:58:20.410Z,67.92
2019-05-18T22:03:23.179Z,68.21
2019-05-18T22:08:25.938Z,68.55
2019-05-18T22:13:28.675Z,69.75
2019-05-18T22:18:31.437Z,69.77
2019-05-18T22:23:34.261Z,69.17
2019-05-18T22:28:36.980Z,69.63
2019-05-18T22:33:39.736Z,69.60
2019-05-18T22:38:42.438Z,69.47
2019-05-18T22:43:45.163Z,69.45
2019-05-18T22:48:47.868Z,69.66
2019-05-18T22:53:50.575Z,69.78
2019-05-18T22:58:53.310Z,70.19
2019-05-18T23:03:56.019Z,70.23
2019-05-18T23:08:58.736Z,69.88
2019-05-18T23:14:01.508Z,70.82
2019-05-18T23:19:04.263Z,71.37
2019-05-18T23:24:07.017Z,71.30
2019-05-18T23:29:09.726Z,71.29
2019-05-18T23:34:12.473Z,72.46
2019-05-18T23:39:15.293Z,72.39
2019-05-18T23:44:18.047Z,72.60
2019-05-18T23:49:20.754Z,72.67
2019-05-18T23:54:23.452Z,72.62
2019-05-18T23:59:26.168Z,72.61
